sensor_id;sensor_type;location;lat;lon;timestamp;P1;durP1;ratioP1;P2;durP2;ratioP2
21038;SDS011;10678;51.002;4.786;2022-07-12T00:01:42;1132.57;;;999.90;;
21038;SDS011;10678;51.002;4.786;2022-07-12T00:04:07;1118.55;;;988.85;;
21038;SDS011;10678;51.002;4.786;2022-07-12T00:06:33;1177.45;;;994.63;;
21038;SDS011;10678;51.002;4.786;2022-07-12T00:08:58;1186.55;;;994.90;;
21038;SDS011;10678;51.002;4.786;2022-07-12T00:11:24;1202.53;;;999.58;;
21038;SDS011;10678;51.002;4.786;2022-07-12T00:13:50;1167.68;;;986.47;;
21038;SDS011;10678;51.002;4.786;2022-07-12T00:16:16;1177.95;;;999.90;;
21038;SDS011;10678;51.002;4.786;2022-07-12T00:18:41;1201.18;;;999.90;;
21038;SDS011;10678;51.002;4.786;2022-07-12T00:21:07;1182.50;;;999.90;;
21038;SDS011;10678;51.002;4.786;2022-07-12T00:23:33;1125.13;;;984.50;;
21038;SDS011;10678;51.002;4.786;2022-07-12T00:25:59;1174.90;;;999.90;;
21038;SDS011;10678;51.002;4.786;2022-07-12T00:28:29;1128.22;;;998.45;;
21038;SDS011;10678;51.002;4.786;2022-07-12T00:30:55;1139.15;;;995.53;;
21038;SDS011;10678;51.002;4.786;2022-07-12T00:33:21;1176.35;;;994.08;;
21038;SDS011;10678;51.002;4.786;2022-07-12T00:35:46;1158.28;;;983.45;;
21038;SDS011;10678;51.002;4.786;2022-07-12T00:38:12;1213.45;;;997.53;;
21038;SDS011;10678;51.002;4.786;2022-07-12T00:40:37;1156.68;;;990.38;;
21038;SDS011;10678;51.002;4.786;2022-07-12T00:43:03;1191.50;;;999.20;;
21038;SDS011;10678;51.002;4.786;2022-07-12T00:45:29;1216.80;;;999.90;;
21038;SDS011;10678;51.002;4.786;2022-07-12T00:47:54;1232.55;;;999.90;;
21038;SDS011;10678;51.002;4.786;2022-07-12T00:50:21;1177.70;;;993.15;;
21038;SDS011;10678;51.002;4.786;2022-07-12T00:52:49;1156.63;;;999.90;;
21038;SDS011;10678;51.002;4.786;2022-07-12T00:55:17;1172.32;;;999.45;;
21038;SDS011;10678;51.002;4.786;2022-07-12T00:57:45;1188.00;;;999.90;;
21038;SDS011;10678;51.002;4.786;2022-07-12T01:00:13;1163.72;;;986.85;;
21038;SDS011;10678;51.002;4.786;2022-07-12T01:02:40;1184.85;;;990.40;;
21038;SDS011;10678;51.002;4.786;2022-07-12T01:05:06;1180.05;;;988.67;;
21038;SDS011;10678;51.002;4.786;2022-07-12T01:07:33;1166.78;;;981.10;;
21038;SDS011;10678;51.002;4.786;2022-07-12T01:10:00;1137.22;;;970.92;;
21038;SDS011;10678;51.002;4.786;2022-07-12T01:12:26;1133.88;;;977.53;;
21038;SDS011;10678;51.002;4.786;2022-07-12T01:14:52;1131.63;;;988.10;;
21038;SDS011;10678;51.002;4.786;2022-07-12T01:17:19;1161.18;;;986.80;;
21038;SDS011;10678;51.002;4.786;2022-07-12T01:19:46;1172.03;;;995.05;;
21038;SDS011;10678;51.002;4.786;2022-07-12T01:22:14;1163.60;;;988.30;;
21038;SDS011;10678;51.002;4.786;2022-07-12T01:24:42;1126.30;;;978.72;;
21038;SDS011;10678;51.002;4.786;2022-07-12T01:27:08;1176.72;;;990.33;;
21038;SDS011;10678;51.002;4.786;2022-07-12T01:29:34;1161.47;;;990.45;;
21038;SDS011;10678;51.002;4.786;2022-07-12T01:32:03;1166.18;;;986.28;;
21038;SDS011;10678;51.002;4.786;2022-07-12T01:34:48;1113.07;;;959.22;;
21038;SDS011;10678;51.002;4.786;2022-07-12T01:37:15;1115.97;;;958.40;;
21038;SDS011;10678;51.002;4.786;2022-07-12T01:39:44;1115.53;;;960.13;;
21038;SDS011;10678;51.002;4.786;2022-07-12T01:42:10;1053.78;;;920.50;;
21038;SDS011;10678;51.002;4.786;2022-07-12T01:44:36;1093.78;;;927.45;;
21038;SDS011;10678;51.002;4.786;2022-07-12T01:47:02;1029.68;;;910.65;;
21038;SDS011;10678;51.002;4.786;2022-07-12T01:49:28;1008.45;;;890.40;;
21038;SDS011;10678;51.002;4.786;2022-07-12T01:51:54;1032.65;;;917.95;;
21038;SDS011;10678;51.002;4.786;2022-07-12T01:54:20;1072.55;;;927.60;;
21038;SDS011;10678;51.002;4.786;2022-07-12T01:56:46;1008.92;;;900.10;;
21038;SDS011;10678;51.002;4.786;2022-07-12T01:59:12;1016.78;;;908.45;;
21038;SDS011;10678;51.002;4.786;2022-07-12T02:01:38;1045.43;;;934.05;;
21038;SDS011;10678;51.002;4.786;2022-07-12T02:04:04;1029.00;;;917.25;;
21038;SDS011;10678;51.002;4.786;2022-07-12T02:06:30;1026.70;;;914.97;;
21038;SDS011;10678;51.002;4.786;2022-07-12T02:08:55;1022.65;;;914.25;;
21038;SDS011;10678;51.002;4.786;2022-07-12T02:11:21;1036.22;;;922.88;;
21038;SDS011;10678;51.002;4.786;2022-07-12T02:13:47;1056.75;;;942.55;;
21038;SDS011;10678;51.002;4.786;2022-07-12T02:16:12;1038.07;;;930.20;;
21038;SDS011;10678;51.002;4.786;2022-07-12T02:18:38;1021.25;;;916.40;;
21038;SDS011;10678;51.002;4.786;2022-07-12T02:21:04;1041.03;;;932.70;;
21038;SDS011;10678;51.002;4.786;2022-07-12T02:23:29;1042.63;;;936.97;;
21038;SDS011;10678;51.002;4.786;2022-07-12T02:25:55;1038.22;;;932.13;;
21038;SDS011;10678;51.002;4.786;2022-07-12T02:28:21;1058.35;;;950.60;;
21038;SDS011;10678;51.002;4.786;2022-07-12T02:30:46;1073.80;;;962.10;;
21038;SDS011;10678;51.002;4.786;2022-07-12T02:33:12;1045.00;;;939.05;;
21038;SDS011;10678;51.002;4.786;2022-07-12T02:35:41;1042.80;;;937.47;;
21038;SDS011;10678;51.002;4.786;2022-07-12T02:38:07;1055.85;;;948.20;;
21038;SDS011;10678;51.002;4.786;2022-07-12T02:40:32;1062.72;;;954.47;;
21038;SDS011;10678;51.002;4.786;2022-07-12T02:43:17;1074.22;;;965.95;;
21038;SDS011;10678;51.002;4.786;2022-07-12T02:45:42;1077.03;;;968.13;;
21038;SDS011;10678;51.002;4.786;2022-07-12T02:48:08;1074.35;;;964.85;;
21038;SDS011;10678;51.002;4.786;2022-07-12T02:50:35;1072.63;;;967.45;;
21038;SDS011;10678;51.002;4.786;2022-07-12T02:53:02;1066.50;;;961.38;;
21038;SDS011;10678;51.002;4.786;2022-07-12T02:55:28;1072.05;;;965.50;;
21038;SDS011;10678;51.002;4.786;2022-07-12T02:57:54;1064.20;;;958.40;;
21038;SDS011;10678;51.002;4.786;2022-07-12T03:00:19;1067.22;;;960.63;;
21038;SDS011;10678;51.002;4.786;2022-07-12T03:02:46;1087.43;;;978.42;;
21038;SDS011;10678;51.002;4.786;2022-07-12T03:05:11;1072.07;;;963.97;;
21038;SDS011;10678;51.002;4.786;2022-07-12T03:07:37;1076.03;;;967.92;;
21038;SDS011;10678;51.002;4.786;2022-07-12T03:10:03;1099.70;;;985.35;;
21038;SDS011;10678;51.002;4.786;2022-07-12T03:12:30;1104.88;;;990.33;;
21038;SDS011;10678;51.002;4.786;2022-07-12T03:14:55;1091.63;;;981.95;;
21038;SDS011;10678;51.002;4.786;2022-07-12T03:17:21;1063.72;;;957.47;;
21038;SDS011;10678;51.002;4.786;2022-07-12T03:19:47;1072.22;;;964.58;;
21038;SDS011;10678;51.002;4.786;2022-07-12T03:22:12;1059.28;;;954.03;;
21038;SDS011;10678;51.002;4.786;2022-07-12T03:24:38;1051.20;;;946.35;;
21038;SDS011;10678;51.002;4.786;2022-07-12T03:27:04;1053.43;;;949.03;;
21038;SDS011;10678;51.002;4.786;2022-07-12T03:29:29;1058.97;;;952.30;;
21038;SDS011;10678;51.002;4.786;2022-07-12T03:31:55;1041.25;;;939.40;;
21038;SDS011;10678;51.002;4.786;2022-07-12T03:34:20;1030.30;;;929.42;;
21038;SDS011;10678;51.002;4.786;2022-07-12T03:36:46;991.92;;;894.70;;
21038;SDS011;10678;51.002;4.786;2022-07-12T03:39:12;1007.83;;;908.55;;
21038;SDS011;10678;51.002;4.786;2022-07-12T03:41:37;1017.63;;;918.15;;
21038;SDS011;10678;51.002;4.786;2022-07-12T03:44:03;991.47;;;894.85;;
21038;SDS011;10678;51.002;4.786;2022-07-12T03:46:29;1015.55;;;915.55;;
21038;SDS011;10678;51.002;4.786;2022-07-12T03:48:55;998.63;;;901.75;;
21038;SDS011;10678;51.002;4.786;2022-07-12T03:51:20;1008.00;;;909.50;;
21038;SDS011;10678;51.002;4.786;2022-07-12T03:53:46;1008.28;;;909.58;;
21038;SDS011;10678;51.002;4.786;2022-07-12T03:56:11;1003.75;;;904.85;;
21038;SDS011;10678;51.002;4.786;2022-07-12T03:58:57;970.10;;;873.10;;
21038;SDS011;10678;51.002;4.786;2022-07-12T04:01:23;993.60;;;894.00;;
21038;SDS011;10678;51.002;4.786;2022-07-12T04:03:48;964.17;;;868.63;;
21038;SDS011;10678;51.002;4.786;2022-07-12T04:06:14;950.85;;;853.95;;
21038;SDS011;10678;51.002;4.786;2022-07-12T04:08:39;937.10;;;839.92;;
21038;SDS011;10678;51.002;4.786;2022-07-12T04:11:05;925.53;;;831.00;;
21038;SDS011;10678;51.002;4.786;2022-07-12T04:13:31;937.17;;;838.95;;
21038;SDS011;10678;51.002;4.786;2022-07-12T04:15:58;953.22;;;855.22;;
21038;SDS011;10678;51.002;4.786;2022-07-12T04:18:23;942.00;;;841.50;;
21038;SDS011;10678;51.002;4.786;2022-07-12T04:20:49;923.95;;;824.70;;
21038;SDS011;10678;51.002;4.786;2022-07-12T04:23:15;929.58;;;830.75;;
21038;SDS011;10678;51.002;4.786;2022-07-12T04:25:40;957.50;;;854.40;;
21038;SDS011;10678;51.002;4.786;2022-07-12T04:28:06;924.03;;;824.80;;
21038;SDS011;10678;51.002;4.786;2022-07-12T04:30:31;925.42;;;826.67;;
21038;SDS011;10678;51.002;4.786;2022-07-12T04:32:57;921.58;;;824.15;;
21038;SDS011;10678;51.002;4.786;2022-07-12T04:35:23;949.80;;;846.97;;
21038;SDS011;10678;51.002;4.786;2022-07-12T04:37:48;921.15;;;822.28;;
21038;SDS011;10678;51.002;4.786;2022-07-12T04:40:14;940.47;;;837.58;;
21038;SDS011;10678;51.002;4.786;2022-07-12T04:42:40;937.40;;;832.65;;
21038;SDS011;10678;51.002;4.786;2022-07-12T04:45:05;952.40;;;849.90;;
21038;SDS011;10678;51.002;4.786;2022-07-12T04:47:34;956.83;;;852.80;;
21038;SDS011;10678;51.002;4.786;2022-07-12T04:50:03;981.53;;;867.30;;
21038;SDS011;10678;51.002;4.786;2022-07-12T04:52:32;973.65;;;855.42;;
21038;SDS011;10678;51.002;4.786;2022-07-12T04:54:59;999.20;;;863.25;;
21038;SDS011;10678;51.002;4.786;2022-07-12T04:57:24;998.00;;;860.60;;
21038;SDS011;10678;51.002;4.786;2022-07-12T04:59:50;1030.75;;;868.35;;
21038;SDS011;10678;51.002;4.786;2022-07-12T05:02:16;1045.72;;;891.78;;
21038;SDS011;10678;51.002;4.786;2022-07-12T05:04:41;1060.85;;;874.83;;
21038;SDS011;10678;51.002;4.786;2022-07-12T05:07:07;1048.03;;;880.85;;
21038;SDS011;10678;51.002;4.786;2022-07-12T05:09:32;1130.25;;;914.20;;
21038;SDS011;10678;51.002;4.786;2022-07-12T05:11:58;1170.32;;;916.30;;
21038;SDS011;10678;51.002;4.786;2022-07-12T05:14:24;1167.53;;;909.45;;
21038;SDS011;10678;51.002;4.786;2022-07-12T05:16:49;1197.53;;;933.03;;
21038;SDS011;10678;51.002;4.786;2022-07-12T05:19:15;1249.30;;;923.13;;
21038;SDS011;10678;51.002;4.786;2022-07-12T05:21:41;1252.03;;;938.70;;
21038;SDS011;10678;51.002;4.786;2022-07-12T05:24:07;1302.40;;;928.78;;
21038;SDS011;10678;51.002;4.786;2022-07-12T05:26:33;1293.10;;;928.38;;
21038;SDS011;10678;51.002;4.786;2022-07-12T05:28:59;1315.15;;;932.88;;
21038;SDS011;10678;51.002;4.786;2022-07-12T05:31:25;1245.82;;;922.22;;
21038;SDS011;10678;51.002;4.786;2022-07-12T05:33:51;1267.07;;;943.47;;
21038;SDS011;10678;51.002;4.786;2022-07-12T05:36:17;1290.43;;;937.45;;
21038;SDS011;10678;51.002;4.786;2022-07-12T05:38:43;1325.68;;;933.78;;
21038;SDS011;10678;51.002;4.786;2022-07-12T05:41:09;1421.47;;;957.08;;
21038;SDS011;10678;51.002;4.786;2022-07-12T05:43:34;1550.28;;;996.90;;
21038;SDS011;10678;51.002;4.786;2022-07-12T05:46:00;1527.65;;;973.95;;
21038;SDS011;10678;51.002;4.786;2022-07-12T05:48:26;1622.38;;;999.38;;
21038;SDS011;10678;51.002;4.786;2022-07-12T05:50:52;1737.07;;;999.90;;
21038;SDS011;10678;51.002;4.786;2022-07-12T05:53:17;1573.25;;;992.00;;
21038;SDS011;10678;51.002;4.786;2022-07-12T05:55:49;1601.63;;;975.80;;
21038;SDS011;10678;51.002;4.786;2022-07-12T05:58:16;1626.07;;;988.15;;
21038;SDS011;10678;51.002;4.786;2022-07-12T06:00:42;1725.57;;;990.03;;
21038;SDS011;10678;51.002;4.786;2022-07-12T06:03:09;1725.72;;;998.50;;
21038;SDS011;10678;51.002;4.786;2022-07-12T06:05:34;1790.35;;;991.17;;
21038;SDS011;10678;51.002;4.786;2022-07-12T06:08:00;1787.63;;;999.00;;
21038;SDS011;10678;51.002;4.786;2022-07-12T06:10:25;1783.47;;;998.40;;
21038;SDS011;10678;51.002;4.786;2022-07-12T06:12:51;1671.70;;;994.53;;
21038;SDS011;10678;51.002;4.786;2022-07-12T06:15:17;1578.93;;;946.47;;
21038;SDS011;10678;51.002;4.786;2022-07-12T06:17:42;1427.25;;;921.47;;
21038;SDS011;10678;51.002;4.786;2022-07-12T06:20:08;1542.35;;;957.88;;
21038;SDS011;10678;51.002;4.786;2022-07-12T06:22:36;1801.90;;;987.28;;
21038;SDS011;10678;51.002;4.786;2022-07-12T06:25:01;1341.38;;;890.53;;
21038;SDS011;10678;51.002;4.786;2022-07-12T06:27:27;1377.90;;;886.95;;
21038;SDS011;10678;51.002;4.786;2022-07-12T06:29:53;1515.28;;;920.20;;
21038;SDS011;10678;51.002;4.786;2022-07-12T06:32:19;1511.60;;;910.90;;
21038;SDS011;10678;51.002;4.786;2022-07-12T06:34:44;1212.55;;;853.92;;
21038;SDS011;10678;51.002;4.786;2022-07-12T06:37:10;1347.90;;;893.85;;
21038;SDS011;10678;51.002;4.786;2022-07-12T06:39:37;1482.10;;;911.78;;
21038;SDS011;10678;51.002;4.786;2022-07-12T06:42:03;1791.95;;;987.88;;
21038;SDS011;10678;51.002;4.786;2022-07-12T06:44:30;1025.90;;;820.83;;
21038;SDS011;10678;51.002;4.786;2022-07-12T06:46:56;1015.42;;;836.45;;
21038;SDS011;10678;51.002;4.786;2022-07-12T06:49:22;1112.22;;;876.88;;
21038;SDS011;10678;51.002;4.786;2022-07-12T06:51:48;1257.45;;;850.38;;
21038;SDS011;10678;51.002;4.786;2022-07-12T06:54:14;1081.32;;;862.22;;
21038;SDS011;10678;51.002;4.786;2022-07-12T06:56:39;924.72;;;779.58;;
21038;SDS011;10678;51.002;4.786;2022-07-12T06:59:06;1051.65;;;841.75;;
21038;SDS011;10678;51.002;4.786;2022-07-12T07:01:35;711.80;;;648.78;;
21038;SDS011;10678;51.002;4.786;2022-07-12T07:04:05;1025.03;;;823.60;;
21038;SDS011;10678;51.002;4.786;2022-07-12T07:06:31;722.13;;;646.00;;
21038;SDS011;10678;51.002;4.786;2022-07-12T07:08:56;657.40;;;591.08;;
21038;SDS011;10678;51.002;4.786;2022-07-12T07:11:22;786.92;;;720.53;;
21038;SDS011;10678;51.002;4.786;2022-07-12T07:13:47;571.50;;;517.90;;
21038;SDS011;10678;51.002;4.786;2022-07-12T07:16:13;659.17;;;603.65;;
21038;SDS011;10678;51.002;4.786;2022-07-12T07:18:39;621.50;;;570.03;;
21038;SDS011;10678;51.002;4.786;2022-07-12T07:21:05;700.35;;;643.25;;
21038;SDS011;10678;51.002;4.786;2022-07-12T07:23:31;796.97;;;712.95;;
21038;SDS011;10678;51.002;4.786;2022-07-12T07:25:57;595.88;;;539.65;;
21038;SDS011;10678;51.002;4.786;2022-07-12T07:28:23;678.65;;;620.22;;
21038;SDS011;10678;51.002;4.786;2022-07-12T07:30:49;665.33;;;609.08;;
21038;SDS011;10678;51.002;4.786;2022-07-12T07:33:20;627.65;;;574.20;;
21038;SDS011;10678;51.002;4.786;2022-07-12T07:35:48;710.08;;;651.20;;
21038;SDS011;10678;51.002;4.786;2022-07-12T07:38:14;481.02;;;442.80;;
21038;SDS011;10678;51.002;4.786;2022-07-12T07:40:41;706.65;;;648.72;;
21038;SDS011;10678;51.002;4.786;2022-07-12T07:43:06;730.00;;;670.38;;
21038;SDS011;10678;51.002;4.786;2022-07-12T07:45:32;636.17;;;583.97;;
21038;SDS011;10678;51.002;4.786;2022-07-12T07:47:58;427.33;;;394.55;;
21038;SDS011;10678;51.002;4.786;2022-07-12T07:50:23;379.38;;;350.95;;
21038;SDS011;10678;51.002;4.786;2022-07-12T07:52:49;247.30;;;231.65;;
21038;SDS011;10678;51.002;4.786;2022-07-12T07:55:16;269.25;;;252.07;;
21038;SDS011;10678;51.002;4.786;2022-07-12T07:57:42;264.10;;;247.38;;
21038;SDS011;10678;51.002;4.786;2022-07-12T08:00:08;349.73;;;327.58;;
21038;SDS011;10678;51.002;4.786;2022-07-12T08:02:34;304.10;;;285.55;;
21038;SDS011;10678;51.002;4.786;2022-07-12T08:05:00;369.23;;;344.38;;
21038;SDS011;10678;51.002;4.786;2022-07-12T08:07:25;332.15;;;311.33;;
21038;SDS011;10678;51.002;4.786;2022-07-12T08:09:51;334.15;;;313.02;;
21038;SDS011;10678;51.002;4.786;2022-07-12T08:12:16;324.08;;;304.25;;
21038;SDS011;10678;51.002;4.786;2022-07-12T08:14:42;435.88;;;407.25;;
21038;SDS011;10678;51.002;4.786;2022-07-12T08:17:08;322.40;;;302.58;;
21038;SDS011;10678;51.002;4.786;2022-07-12T08:19:33;309.15;;;289.98;;
21038;SDS011;10678;51.002;4.786;2022-07-12T08:21:59;452.83;;;422.27;;
21038;SDS011;10678;51.002;4.786;2022-07-12T08:24:25;283.40;;;263.65;;
21038;SDS011;10678;51.002;4.786;2022-07-12T08:26:50;323.98;;;297.90;;
21038;SDS011;10678;51.002;4.786;2022-07-12T08:29:16;380.10;;;348.88;;
21038;SDS011;10678;51.002;4.786;2022-07-12T08:31:42;575.25;;;524.97;;
21038;SDS011;10678;51.002;4.786;2022-07-12T08:34:07;170.90;;;154.73;;
21038;SDS011;10678;51.002;4.786;2022-07-12T08:36:33;624.28;;;568.85;;
21038;SDS011;10678;51.002;4.786;2022-07-12T08:38:59;735.72;;;669.95;;
21038;SDS011;10678;51.002;4.786;2022-07-12T08:41:24;319.20;;;288.95;;
21038;SDS011;10678;51.002;4.786;2022-07-12T08:43:50;640.45;;;580.83;;
21038;SDS011;10678;51.002;4.786;2022-07-12T08:46:16;604.15;;;544.88;;
21038;SDS011;10678;51.002;4.786;2022-07-12T08:48:42;754.55;;;679.97;;
21038;SDS011;10678;51.002;4.786;2022-07-12T08:51:17;409.48;;;368.65;;
21038;SDS011;10678;51.002;4.786;2022-07-12T08:53:44;601.10;;;540.53;;
21038;SDS011;10678;51.002;4.786;2022-07-12T08:59:12;610.05;;;550.95;;
21038;SDS011;10678;51.002;4.786;2022-07-12T09:01:41;255.07;;;231.18;;
21038;SDS011;10678;51.002;4.786;2022-07-12T09:04:08;312.13;;;281.60;;
21038;SDS011;10678;51.002;4.786;2022-07-12T09:06:45;267.90;;;242.90;;
21038;SDS011;10678;51.002;4.786;2022-07-12T09:09:11;642.22;;;580.47;;
21038;SDS011;10678;51.002;4.786;2022-07-12T09:11:59;640.45;;;575.75;;
21038;SDS011;10678;51.002;4.786;2022-07-12T09:14:25;1072.43;;;963.58;;
21038;SDS011;10678;51.002;4.786;2022-07-12T09:17:06;430.55;;;391.38;;
21038;SDS011;10678;51.002;4.786;2022-07-12T09:19:37;905.67;;;824.60;;
21038;SDS011;10678;51.002;4.786;2022-07-12T09:22:04;569.30;;;520.17;;
21038;SDS011;10678;51.002;4.786;2022-07-12T09:24:40;638.03;;;580.50;;
21038;SDS011;10678;51.002;4.786;2022-07-12T09:27:05;843.38;;;765.80;;
21038;SDS011;10678;51.002;4.786;2022-07-12T09:29:31;869.88;;;790.88;;
21038;SDS011;10678;51.002;4.786;2022-07-12T09:32:05;377.20;;;344.38;;
21038;SDS011;10678;51.002;4.786;2022-07-12T09:34:57;836.00;;;760.38;;
21038;SDS011;10678;51.002;4.786;2022-07-12T09:37:42;472.70;;;432.52;;
21038;SDS011;10678;51.002;4.786;2022-07-12T09:40:08;193.27;;;176.38;;
21038;SDS011;10678;51.002;4.786;2022-07-12T09:42:35;408.90;;;373.38;;
21038;SDS011;10678;51.002;4.786;2022-07-12T09:45:01;351.30;;;321.15;;
21038;SDS011;10678;51.002;4.786;2022-07-12T09:47:27;601.95;;;550.00;;
21038;SDS011;10678;51.002;4.786;2022-07-12T09:49:53;278.45;;;254.48;;
21038;SDS011;10678;51.002;4.786;2022-07-12T09:52:19;431.08;;;394.05;;
21038;SDS011;10678;51.002;4.786;2022-07-12T09:54:46;270.27;;;247.65;;
21038;SDS011;10678;51.002;4.786;2022-07-12T09:59:54;248.40;;;227.45;;
21038;SDS011;10678;51.002;4.786;2022-07-12T10:02:21;266.50;;;244.63;;
21038;SDS011;10678;51.002;4.786;2022-07-12T10:04:47;499.15;;;455.35;;
21038;SDS011;10678;51.002;4.786;2022-07-12T10:07:14;296.08;;;270.95;;
21038;SDS011;10678;51.002;4.786;2022-07-12T10:09:41;305.35;;;278.92;;
21038;SDS011;10678;51.002;4.786;2022-07-12T10:12:09;277.17;;;255.82;;
21038;SDS011;10678;51.002;4.786;2022-07-12T10:14:39;268.67;;;246.55;;
21038;SDS011;10678;51.002;4.786;2022-07-12T10:17:06;180.43;;;165.13;;
21038;SDS011;10678;51.002;4.786;2022-07-12T10:19:36;173.18;;;157.57;;
21038;SDS011;10678;51.002;4.786;2022-07-12T10:22:03;137.80;;;125.22;;
21038;SDS011;10678;51.002;4.786;2022-07-12T10:26:58;133.18;;;121.25;;
21038;SDS011;10678;51.002;4.786;2022-07-12T10:29:40;138.98;;;127.45;;
21038;SDS011;10678;51.002;4.786;2022-07-12T10:35:04;174.85;;;159.63;;
21038;SDS011;10678;51.002;4.786;2022-07-12T10:40:42;156.02;;;141.77;;
21038;SDS011;10678;51.002;4.786;2022-07-12T10:45:35;518.10;;;476.10;;
21038;SDS011;10678;51.002;4.786;2022-07-12T10:58:35;119.97;;;109.45;;
21038;SDS011;10678;51.002;4.786;2022-07-12T11:01:03;125.97;;;115.00;;
21038;SDS011;10678;51.002;4.786;2022-07-12T11:03:31;164.15;;;150.05;;
21038;SDS011;10678;51.002;4.786;2022-07-12T11:06:01;158.43;;;145.50;;
21038;SDS011;10678;51.002;4.786;2022-07-12T11:08:28;225.13;;;208.40;;
21038;SDS011;10678;51.002;4.786;2022-07-12T11:10:55;147.75;;;134.55;;
21038;SDS011;10678;51.002;4.786;2022-07-12T11:13:22;126.10;;;115.05;;
21038;SDS011;10678;51.002;4.786;2022-07-12T11:15:58;162.13;;;148.48;;
21038;SDS011;10678;51.002;4.786;2022-07-12T11:18:31;193.50;;;177.95;;
21038;SDS011;10678;51.002;4.786;2022-07-12T11:20:59;185.65;;;169.88;;
21038;SDS011;10678;51.002;4.786;2022-07-12T11:23:25;217.73;;;200.57;;
21038;SDS011;10678;51.002;4.786;2022-07-12T11:25:54;248.50;;;229.02;;
21038;SDS011;10678;51.002;4.786;2022-07-12T11:28:20;339.80;;;312.02;;
21038;SDS011;10678;51.002;4.786;2022-07-12T11:30:48;298.13;;;274.02;;
21038;SDS011;10678;51.002;4.786;2022-07-12T11:33:17;267.90;;;246.25;;
21038;SDS011;10678;51.002;4.786;2022-07-12T11:35:44;253.55;;;232.80;;
21038;SDS011;10678;51.002;4.786;2022-07-12T11:38:10;302.40;;;279.80;;
21038;SDS011;10678;51.002;4.786;2022-07-12T11:40:36;236.35;;;217.02;;
21038;SDS011;10678;51.002;4.786;2022-07-12T11:43:02;403.17;;;368.33;;
21038;SDS011;10678;51.002;4.786;2022-07-12T11:45:30;438.05;;;399.45;;
21038;SDS011;10678;51.002;4.786;2022-07-12T11:48:01;357.98;;;325.48;;
21038;SDS011;10678;51.002;4.786;2022-07-12T11:50:31;564.15;;;511.45;;
21038;SDS011;10678;51.002;4.786;2022-07-12T11:52:59;383.83;;;349.60;;
21038;SDS011;10678;51.002;4.786;2022-07-12T11:55:25;550.53;;;497.88;;
21038;SDS011;10678;51.002;4.786;2022-07-12T11:57:50;273.52;;;251.70;;
21038;SDS011;10678;51.002;4.786;2022-07-12T12:00:20;568.67;;;515.85;;
21038;SDS011;10678;51.002;4.786;2022-07-12T12:02:50;407.02;;;370.35;;
21038;SDS011;10678;51.002;4.786;2022-07-12T12:05:17;277.25;;;254.88;;
21038;SDS011;10678;51.002;4.786;2022-07-12T12:07:43;456.20;;;415.40;;
21038;SDS011;10678;51.002;4.786;2022-07-12T12:10:10;272.60;;;249.98;;
21038;SDS011;10678;51.002;4.786;2022-07-12T12:15:13;315.13;;;287.98;;
21038;SDS011;10678;51.002;4.786;2022-07-12T12:18:04;738.95;;;644.92;;
21038;SDS011;10678;51.002;4.786;2022-07-12T12:20:32;646.03;;;563.97;;
21038;SDS011;10678;51.002;4.786;2022-07-12T12:22:58;805.42;;;690.72;;
21038;SDS011;10678;51.002;4.786;2022-07-12T12:25:45;745.65;;;644.05;;
21038;SDS011;10678;51.002;4.786;2022-07-12T12:28:11;388.10;;;349.67;;
21038;SDS011;10678;51.002;4.786;2022-07-12T12:30:59;334.27;;;304.40;;
21038;SDS011;10678;51.002;4.786;2022-07-12T12:33:34;316.13;;;287.73;;
21038;SDS011;10678;51.002;4.786;2022-07-12T12:36:13;263.98;;;242.80;;
21038;SDS011;10678;51.002;4.786;2022-07-12T12:38:40;313.25;;;288.95;;
21038;SDS011;10678;51.002;4.786;2022-07-12T12:41:07;315.77;;;289.27;;
21038;SDS011;10678;51.002;4.786;2022-07-12T12:43:34;288.13;;;265.08;;
21038;SDS011;10678;51.002;4.786;2022-07-12T12:46:00;273.30;;;252.32;;
21038;SDS011;10678;51.002;4.786;2022-07-12T12:48:26;275.10;;;255.82;;
21038;SDS011;10678;51.002;4.786;2022-07-12T12:50:54;224.48;;;206.82;;
21038;SDS011;10678;51.002;4.786;2022-07-12T12:53:41;182.45;;;167.63;;
21038;SDS011;10678;51.002;4.786;2022-07-12T12:56:11;102.82;;;93.15;;
21038;SDS011;10678;51.002;4.786;2022-07-12T12:58:39;141.13;;;128.52;;
21038;SDS011;10678;51.002;4.786;2022-07-12T13:01:05;176.52;;;161.10;;
21038;SDS011;10678;51.002;4.786;2022-07-12T13:03:31;125.20;;;113.82;;
21038;SDS011;10678;51.002;4.786;2022-07-12T13:05:57;160.38;;;145.77;;
21038;SDS011;10678;51.002;4.786;2022-07-12T13:08:25;154.35;;;140.95;;
21038;SDS011;10678;51.002;4.786;2022-07-12T13:10:52;140.40;;;127.80;;
21038;SDS011;10678;51.002;4.786;2022-07-12T13:13:37;179.57;;;164.98;;
21038;SDS011;10678;51.002;4.786;2022-07-12T13:16:04;501.90;;;460.40;;
21038;SDS011;10678;51.002;4.786;2022-07-12T13:18:30;247.63;;;227.63;;
21038;SDS011;10678;51.002;4.786;2022-07-12T13:20:56;142.90;;;129.82;;
21038;SDS011;10678;51.002;4.786;2022-07-12T13:23:22;172.27;;;156.98;;
21038;SDS011;10678;51.002;4.786;2022-07-12T13:25:48;144.38;;;131.90;;
21038;SDS011;10678;51.002;4.786;2022-07-12T13:28:13;129.23;;;118.20;;
21038;SDS011;10678;51.002;4.786;2022-07-12T13:30:39;152.07;;;138.63;;
21038;SDS011;10678;51.002;4.786;2022-07-12T13:33:05;331.98;;;310.42;;
21038;SDS011;10678;51.002;4.786;2022-07-12T13:35:31;218.60;;;202.45;;
21038;SDS011;10678;51.002;4.786;2022-07-12T13:37:57;326.73;;;304.77;;
21038;SDS011;10678;51.002;4.786;2022-07-12T13:40:22;213.38;;;197.85;;
21038;SDS011;10678;51.002;4.786;2022-07-12T13:42:49;277.23;;;258.00;;
21038;SDS011;10678;51.002;4.786;2022-07-12T13:45:25;227.15;;;211.68;;
21038;SDS011;10678;51.002;4.786;2022-07-12T13:47:51;220.52;;;203.25;;
21038;SDS011;10678;51.002;4.786;2022-07-12T13:50:18;329.40;;;308.58;;
21038;SDS011;10678;51.002;4.786;2022-07-12T13:52:46;160.80;;;146.90;;
21038;SDS011;10678;51.002;4.786;2022-07-12T13:55:13;267.55;;;244.70;;
21038;SDS011;10678;51.002;4.786;2022-07-12T13:57:40;153.27;;;139.77;;
21038;SDS011;10678;51.002;4.786;2022-07-12T14:00:08;179.55;;;164.40;;
21038;SDS011;10678;51.002;4.786;2022-07-12T14:02:36;137.27;;;125.18;;
21038;SDS011;10678;51.002;4.786;2022-07-12T14:05:04;167.80;;;152.40;;
21038;SDS011;10678;51.002;4.786;2022-07-12T14:07:31;141.57;;;128.48;;
21038;SDS011;10678;51.002;4.786;2022-07-12T14:09:57;187.52;;;171.07;;
21038;SDS011;10678;51.002;4.786;2022-07-12T14:12:24;121.13;;;110.93;;
21038;SDS011;10678;51.002;4.786;2022-07-12T14:14:51;226.73;;;206.70;;
21038;SDS011;10678;51.002;4.786;2022-07-12T14:17:35;189.00;;;172.73;;
21038;SDS011;10678;51.002;4.786;2022-07-12T14:20:00;231.52;;;214.13;;
21038;SDS011;10678;51.002;4.786;2022-07-12T14:22:27;228.00;;;210.70;;